Time;durP1;ratioP1;P1;durP2;ratioP2;P2;SDS_P1;SDS_P2;PMS_P1;PMS_P2;Temp;Humidity;BMP_temperature;BMP_pressure;BME280_temperature;BME280_humidity;BME280_pressure;Samples;Min_cycle;Max_cycle;Signal;HPM_P1;HPM_P2
2022/04/24 00:01:54;;;;;;;24.77;18.47;;;8.10;94.20;;;;;;4978124;28;20173;-65
2022/04/24 00:04:20;;;;;;;22.77;17.30;;;8.10;94.20;;;;;;4977560;28;20193;-65
2022/04/24 00:06:46;;;;;;;31.13;19.90;;;8.10;94.40;;;;;;4977486;28;20196;-65
2022/04/24 00:09:14;;;;;;;24.40;17.83;;;8.00;94.10;;;;;;4977292;28;20196;-66
2022/04/24 00:11:40;;;;;;;27.07;19.93;;;8.00;94.40;;;;;;4977744;28;20430;-65
2022/04/24 00:14:09;;;;;;;28.67;20.67;;;8.00;94.20;;;;;;4973484;28;20473;-65
2022/04/24 00:16:36;;;;;;;27.63;19.23;;;8.00;94.30;;;;;;4995010;28;20188;-64
2022/04/24 00:19:02;;;;;;;21.10;17.47;;;8.00;94.40;;;;;;4977905;28;20414;-64
2022/04/24 00:21:28;;;;;;;26.83;19.20;;;7.90;94.40;;;;;;4993678;28;20429;-64
2022/04/24 00:23:54;;;;;;;28.33;20.47;;;7.90;94.30;;;;;;4977141;28;20437;-64
2022/04/24 00:26:19;;;;;;;25.83;17.50;;;7.90;94.30;;;;;;4976716;28;20204;-66
2022/04/24 00:28:45;;;;;;;30.80;19.77;;;7.80;94.30;;;;;;4993343;28;20192;-66
2022/04/24 00:31:11;;;;;;;24.17;18.30;;;7.80;94.30;;;;;;4977285;28;20188;-66
2022/04/24 00:33:37;;;;;;;21.77;16.77;;;7.80;94.30;;;;;;4977718;28;20224;-66
2022/04/24 00:36:02;;;;;;;27.20;19.67;;;7.80;94.50;;;;;;4977432;28;20185;-66
2022/04/24 00:38:28;;;;;;;28.10;19.20;;;7.90;94.60;;;;;;4994086;28;20184;-66
2022/04/24 00:40:54;;;;;;;24.37;17.03;;;7.90;94.50;;;;;;4992544;28;20275;-66
2022/04/24 00:43:20;;;;;;;26.10;18.53;;;8.00;94.60;;;;;;4977436;28;20196;-66
2022/04/24 00:45:47;;;;;;;26.00;18.50;;;8.00;94.60;;;;;;4976928;28;20200;-66
2022/04/24 00:48:13;;;;;;;29.20;19.80;;;8.00;94.60;;;;;;4977543;28;20220;-66
2022/04/24 00:50:39;;;;;;;24.53;18.87;;;8.00;94.60;;;;;;4977291;28;20442;-67
2022/04/24 00:53:06;;;;;;;29.57;18.97;;;8.10;94.50;;;;;;4961335;28;20208;-66
2022/04/24 00:55:32;;;;;;;27.23;19.83;;;8.10;94.50;;;;;;4977292;28;20185;-67
2022/04/24 00:57:58;;;;;;;27.47;18.87;;;8.10;94.40;;;;;;4977355;28;20509;-67
2022/04/24 01:00:24;;;;;;;22.00;15.63;;;8.10;94.50;;;;;;4977553;28;20513;-67
2022/04/24 01:02:49;;;;;;;25.47;19.73;;;8.10;94.70;;;;;;4993149;28;20273;-67
2022/04/24 01:05:17;;;;;;;25.00;19.50;;;8.20;94.60;;;;;;4977092;28;20204;-67
2022/04/24 01:07:44;;;;;;;29.63;19.37;;;8.20;94.40;;;;;;4977361;28;20199;-67
2022/04/24 01:10:09;;;;;;;25.07;18.80;;;8.20;94.20;;;;;;4977514;28;20444;-67
2022/04/24 01:12:35;;;;;;;29.27;20.03;;;8.20;94.30;;;;;;4980557;28;20453;-67
2022/04/24 01:15:01;;;;;;;26.43;19.37;;;8.30;94.50;;;;;;4980676;28;20181;-66
2022/04/24 01:17:27;;;;;;;27.90;20.33;;;8.30;94.20;;;;;;4980608;28;20192;-66
2022/04/24 01:19:53;;;;;;;23.47;18.57;;;8.20;94.10;;;;;;4996313;28;20268;-66
2022/04/24 01:22:19;;;;;;;22.77;16.60;;;8.20;94.10;;;;;;4996946;28;20417;-66
2022/04/24 01:24:45;;;;;;;25.10;17.23;;;8.20;94.20;;;;;;4980068;28;20461;-66
2022/04/24 01:27:10;;;;;;;23.03;16.70;;;8.20;94.20;;;;;;4996675;28;20189;-66
2022/04/24 01:29:36;;;;;;;27.47;17.80;;;8.20;94.30;;;;;;4980232;28;20317;-67
2022/04/24 01:32:02;;;;;;;19.20;15.47;;;8.30;94.30;;;;;;4980365;28;20276;-66
2022/04/24 01:34:28;;;;;;;24.77;17.60;;;8.30;94.30;;;;;;4979519;28;20283;-67
2022/04/24 01:36:53;;;;;;;23.07;17.33;;;8.30;94.30;;;;;;4980318;28;20202;-67
2022/04/24 01:39:19;;;;;;;23.33;16.80;;;8.30;94.30;;;;;;4979745;28;20284;-67
2022/04/24 01:41:45;;;;;;;28.00;18.57;;;8.40;94.30;;;;;;4996537;28;20181;-67
2022/04/24 01:44:11;;;;;;;23.17;17.17;;;8.40;94.40;;;;;;4996398;28;20177;-67
2022/04/24 01:46:37;;;;;;;26.10;18.73;;;8.30;94.40;;;;;;4995677;28;20201;-66
2022/04/24 01:49:02;;;;;;;24.20;16.93;;;8.40;94.30;;;;;;4979892;28;20437;-67
2022/04/24 01:51:28;;;;;;;24.67;18.07;;;8.40;94.30;;;;;;4979965;28;20211;-67
2022/04/24 01:53:54;;;;;;;24.30;18.43;;;8.40;94.30;;;;;;4979520;28;20243;-67
2022/04/24 01:56:19;;;;;;;26.20;18.10;;;8.40;94.40;;;;;;4979304;28;20249;-67
2022/04/24 01:58:45;;;;;;;23.17;17.57;;;8.40;94.40;;;;;;4982048;28;20250;-67
2022/04/24 02:01:11;;;;;;;25.13;17.83;;;8.50;94.30;;;;;;4999111;28;20242;-66
2022/04/24 02:03:37;;;;;;;22.13;17.03;;;8.50;94.30;;;;;;4997803;28;20195;-67
2022/04/24 02:06:04;;;;;;;29.13;20.13;;;8.50;94.50;;;;;;4995879;28;20191;-67
2022/04/24 02:08:31;;;;;;;26.73;18.27;;;8.50;94.30;;;;;;4979566;28;20203;-67
2022/04/24 02:10:58;;;;;;;22.00;16.40;;;8.50;94.30;;;;;;4979585;28;20482;-67
2022/04/24 02:13:23;;;;;;;24.30;17.37;;;8.50;94.50;;;;;;4995546;28;20461;-67
2022/04/24 02:15:50;;;;;;;29.27;19.57;;;8.50;94.40;;;;;;4978962;28;20477;-66
2022/04/24 02:18:16;;;;;;;24.50;18.10;;;8.50;94.20;;;;;;4994652;28;20165;-67
2022/04/24 02:20:41;;;;;;;23.43;18.63;;;8.50;94.40;;;;;;4995482;28;20428;-66
2022/04/24 02:23:08;;;;;;;24.27;17.17;;;8.60;94.50;;;;;;4991955;28;20235;-64
2022/04/24 02:25:34;;;;;;;18.93;14.13;;;8.60;94.10;;;;;;4963636;28;20236;-67
2022/04/24 02:28:00;;;;;;;20.27;15.53;;;8.50;94.00;;;;;;4984158;28;20458;-67
2022/04/24 02:30:28;;;;;;;21.40;15.23;;;8.50;94.00;;;;;;4990611;28;20445;-66
2022/04/24 02:32:59;;;;;;;17.90;14.00;;;8.60;94.10;;;;;;4977183;28;20213;-66
2022/04/24 02:35:26;;;;;;;17.43;13.87;;;8.60;94.20;;;;;;4975820;28;20407;-67
2022/04/24 02:37:52;;;;;;;18.83;14.10;;;8.60;94.30;;;;;;4989174;28;20433;-66
2022/04/24 02:40:21;;;;;;;21.23;16.60;;;8.60;94.30;;;;;;4994806;28;20462;-66
2022/04/24 02:42:50;;;;;;;19.80;15.03;;;8.60;94.10;;;;;;4995180;28;20216;-66
2022/04/24 02:45:17;;;;;;;20.03;14.37;;;8.60;94.30;;;;;;4975392;28;20450;-66
2022/04/24 02:47:43;;;;;;;23.80;17.97;;;8.60;94.40;;;;;;4992021;28;20411;-66
2022/04/24 02:50:08;;;;;;;23.13;17.40;;;8.60;94.50;;;;;;4975517;28;20438;-66
2022/04/24 02:52:48;;;;;;;20.80;16.50;;;8.60;94.40;;;;;;4984997;28;20213;-66
2022/04/24 02:55:14;;;;;;;22.20;17.27;;;8.60;94.60;;;;;;4994429;28;20192;-65
2022/04/24 02:57:40;;;;;;;22.53;17.10;;;8.60;94.70;;;;;;4978556;28;20418;-65
2022/04/24 03:00:07;;;;;;;25.13;18.50;;;8.60;94.80;;;;;;4985049;28;20769;-67
2022/04/24 03:02:42;;;;;;;21.60;14.40;;;8.60;94.70;;;;;;4963696;28;20260;-66
2022/04/24 03:05:14;;;;;;;27.20;19.50;;;8.60;94.90;;;;;;5010998;28;20460;-67
2022/04/24 03:07:40;;;;;;;23.67;16.57;;;8.60;94.80;;;;;;4994890;28;20425;-65
2022/04/24 03:10:08;;;;;;;25.73;17.13;;;8.60;94.90;;;;;;4995055;28;20429;-66
2022/04/24 03:12:35;;;;;;;33.53;20.93;;;8.60;95.00;;;;;;4978723;28;20468;-66
2022/04/24 03:15:03;;;;;;;35.60;22.03;;;8.60;95.00;;;;;;4978322;28;20441;-66
2022/04/24 03:17:31;;;;;;;29.57;20.67;;;8.70;94.90;;;;;;4994542;28;20402;-65
2022/04/24 03:19:56;;;;;;;26.60;19.23;;;8.70;94.90;;;;;;4994117;28;20430;-66
2022/04/24 03:22:22;;;;;;;26.27;18.27;;;8.60;94.80;;;;;;4994180;28;20433;-66
2022/04/24 03:24:48;;;;;;;25.87;17.57;;;8.60;94.90;;;;;;4961403;28;20220;-66
2022/04/24 03:27:14;;;;;;;28.70;20.43;;;8.60;94.90;;;;;;4978331;28;20184;-66
2022/04/24 03:29:40;;;;;;;23.67;17.03;;;8.60;94.90;;;;;;4977950;28;20216;-66
2022/04/24 03:32:06;;;;;;;27.63;18.50;;;8.60;95.00;;;;;;4978498;28;20181;-66
2022/04/24 03:34:31;;;;;;;26.23;17.83;;;8.60;95.10;;;;;;4978129;28;20200;-66
2022/04/24 03:36:57;;;;;;;25.30;18.30;;;8.60;94.90;;;;;;4978095;28;20418;-66
2022/04/24 03:39:23;;;;;;;22.87;16.03;;;8.60;94.90;;;;;;4977012;28;20192;-66
2022/04/24 03:41:48;;;;;;;20.60;15.10;;;8.50;94.80;;;;;;4978638;28;20183;-66
2022/04/24 03:44:14;;;;;;;23.20;17.20;;;8.50;94.90;;;;;;4977793;28;20188;-66
2022/04/24 03:46:39;;;;;;;21.07;15.87;;;8.50;94.60;;;;;;4962233;28;20263;-66
2022/04/24 03:49:05;;;;;;;21.03;13.67;;;8.40;94.80;;;;;;4993590;28;20275;-66
2022/04/24 03:51:31;;;;;;;21.17;16.23;;;8.40;94.80;;;;;;4962329;28;20195;-66
2022/04/24 03:53:56;;;;;;;20.10;15.23;;;8.40;94.90;;;;;;4977761;28;20232;-66
2022/04/24 03:56:22;;;;;;;20.33;15.37;;;8.30;94.70;;;;;;4978017;28;20192;-66
2022/04/24 03:58:48;;;;;;;22.47;16.57;;;8.30;94.80;;;;;;4994033;28;20250;-66
2022/04/24 04:01:14;;;;;;;19.20;14.40;;;8.30;94.90;;;;;;4993440;28;20259;-66
2022/04/24 04:03:39;;;;;;;18.87;14.37;;;8.30;94.80;;;;;;4993875;28;20173;-66
2022/04/24 04:06:05;;;;;;;20.33;14.70;;;8.30;94.80;;;;;;4977647;28;20192;-66
2022/04/24 04:08:30;;;;;;;18.13;13.57;;;8.20;94.50;;;;;;4977463;28;20224;-66
2022/04/24 04:10:56;;;;;;;17.60;13.17;;;8.10;94.70;;;;;;4977450;28;20196;-66
2022/04/24 04:13:22;;;;;;;19.50;14.23;;;8.10;94.70;;;;;;4977827;28;20319;-66
2022/04/24 04:15:48;;;;;;;22.50;16.07;;;8.10;94.60;;;;;;4977549;28;20208;-66
2022/04/24 04:18:13;;;;;;;21.43;15.03;;;8.00;94.40;;;;;;4977965;28;20272;-66
2022/04/24 04:20:39;;;;;;;21.63;15.67;;;8.00;94.60;;;;;;4977365;28;20188;-65
2022/04/24 04:23:05;;;;;;;24.43;18.13;;;8.00;94.70;;;;;;4977695;28;20180;-65
2022/04/24 04:25:30;;;;;;;21.10;15.23;;;8.00;94.70;;;;;;4973342;28;20304;-65
2022/04/24 04:27:56;;;;;;;17.83;13.87;;;7.90;94.70;;;;;;4958453;28;20189;-65
2022/04/24 04:30:22;;;;;;;21.73;15.10;;;7.90;94.70;;;;;;4961099;28;20192;-65
2022/04/24 04:32:48;;;;;;;21.67;15.10;;;7.90;94.70;;;;;;4977733;28;20208;-65
2022/04/24 04:35:14;;;;;;;16.93;13.70;;;7.90;94.60;;;;;;4993589;28;20187;-65
2022/04/24 04:37:40;;;;;;;18.07;13.07;;;7.90;94.70;;;;;;4977483;28;20414;-65
2022/04/24 04:40:07;;;;;;;18.73;13.40;;;7.80;94.80;;;;;;4974625;28;20181;-65
2022/04/24 04:42:33;;;;;;;19.77;14.07;;;7.90;94.80;;;;;;4986536;28;20431;-64
2022/04/24 04:45:00;;;;;;;18.67;14.40;;;7.90;94.70;;;;;;4981603;28;20427;-65
2022/04/24 04:47:29;;;;;;;21.50;15.07;;;7.90;94.80;;;;;;4970709;28;20272;-64
2022/04/24 04:49:55;;;;;;;21.63;15.30;;;8.00;94.90;;;;;;4980655;28;20425;-67
2022/04/24 04:52:21;;;;;;;23.63;15.80;;;8.00;94.80;;;;;;4970075;28;20419;-71
2022/04/24 04:54:47;;;;;;;21.00;15.43;;;8.10;94.80;;;;;;4991261;28;20216;-67
2022/04/24 04:57:13;;;;;;;18.40;12.90;;;8.10;94.70;;;;;;4961459;28;20451;-65
2022/04/24 04:59:39;;;;;;;17.30;12.50;;;8.10;94.90;;;;;;4997126;28;20188;-69
2022/04/24 05:02:05;;;;;;;17.37;11.57;;;8.20;95.10;;;;;;4980580;28;20235;-70
2022/04/24 05:04:30;;;;;;;17.90;13.17;;;8.30;95.10;;;;;;4981284;28;20436;-70
2022/04/24 05:06:56;;;;;;;18.27;13.63;;;8.40;95.00;;;;;;4980100;28;20192;-71
2022/04/24 05:09:22;;;;;;;14.73;12.13;;;8.50;94.90;;;;;;4975986;28;20264;-69
2022/04/24 05:11:47;;;;;;;19.20;13.07;;;8.60;94.90;;;;;;4968998;28;20289;-70
2022/04/24 05:14:13;;;;;;;16.80;12.27;;;8.70;94.90;;;;;;4977157;28;20219;-69
2022/04/24 05:16:39;;;;;;;14.80;11.93;;;8.80;94.90;;;;;;4979429;28;20199;-67
2022/04/24 05:19:07;;;;;;;13.37;10.93;;;8.80;94.90;;;;;;4952262;28;20200;-68
2022/04/24 05:21:33;;;;;;;13.43;10.47;;;8.90;94.80;;;;;;4969340;28;20200;-68
2022/04/24 05:24:00;;;;;;;13.47;10.00;;;9.00;94.80;;;;;;4996756;28;20426;-70
2022/04/24 05:26:26;;;;;;;14.63;11.13;;;9.10;94.80;;;;;;4964139;28;20495;-70
2022/04/24 05:28:52;;;;;;;12.07;9.77;;;9.20;94.70;;;;;;4979796;28;20484;-69
2022/04/24 05:31:18;;;;;;;15.77;11.67;;;9.30;94.60;;;;;;4980508;28;20426;-69
2022/04/24 05:33:44;;;;;;;17.33;13.23;;;9.30;94.50;;;;;;4980096;28;20477;-69
2022/04/24 05:36:10;;;;;;;14.77;12.10;;;9.40;94.50;;;;;;4996583;28;20418;-69
2022/04/24 05:38:36;;;;;;;15.40;12.10;;;9.50;94.20;;;;;;4980533;28;20275;-69
2022/04/24 05:41:02;;;;;;;15.70;11.70;;;9.50;94.30;;;;;;4979897;28;20201;-69
2022/04/24 05:43:29;;;;;;;21.53;13.50;;;9.50;94.10;;;;;;4980191;28;20188;-69
2022/04/24 05:45:54;;;;;;;15.03;11.53;;;9.70;94.00;;;;;;4978041;28;20445;-69
2022/04/24 05:48:20;;;;;;;18.30;13.00;;;9.70;93.70;;;;;;4961030;28;20513;-69
2022/04/24 05:50:46;;;;;;;14.87;10.23;;;9.80;93.70;;;;;;4975435;28;20283;-69
2022/04/24 05:53:12;;;;;;;19.47;13.10;;;9.80;93.20;;;;;;4990900;28;20291;-70
2022/04/24 05:55:37;;;;;;;18.10;11.60;;;9.80;92.70;;;;;;4979286;28;20185;-70
2022/04/24 05:58:03;;;;;;;16.40;11.87;;;9.90;93.30;;;;;;4978579;28;20184;-70
2022/04/24 06:00:29;;;;;;;20.60;13.00;;;10.00;92.70;;;;;;4979837;28;20189;-67
2022/04/24 06:02:55;;;;;;;16.57;12.50;;;10.10;92.40;;;;;;4979443;28;20177;-71
2022/04/24 06:05:22;;;;;;;24.10;16.97;;;10.10;92.60;;;;;;4979777;28;20239;-68
2022/04/24 06:07:47;;;;;;;19.47;14.20;;;10.20;92.70;;;;;;5011373;28;20188;-70
2022/04/24 06:10:13;;;;;;;20.93;14.57;;;10.20;92.40;;;;;;4967640;28;20219;-64
2022/04/24 06:12:50;;;;;;;25.50;16.73;;;10.30;92.10;;;;;;4960525;28;20219;-66
2022/04/24 06:15:20;;;;;;;21.53;14.17;;;10.20;92.30;;;;;;4993614;28;20188;-69
2022/04/24 06:17:52;;;;;;;21.30;15.50;;;10.30;92.40;;;;;;4962529;28;20193;-70
2022/04/24 06:20:19;;;;;;;19.03;13.40;;;10.30;91.30;;;;;;4965996;28;20546;-70
2022/04/24 06:22:50;;;;;;;20.27;14.17;;;10.30;91.60;;;;;;4979664;28;20422;-70
2022/04/24 06:25:38;;;;;;;26.30;14.97;;;10.50;91.50;;;;;;4995024;28;20474;-71
2022/04/24 06:28:04;;;;;;;23.63;15.73;;;10.60;92.10;;;;;;4995559;28;20189;-70
2022/04/24 06:30:31;;;;;;;19.93;14.03;;;10.70;92.50;;;;;;4981269;28;20200;-71
2022/04/24 06:32:57;;;;;;;22.17;13.70;;;10.70;91.80;;;;;;4984303;28;20504;-68
2022/04/24 06:35:24;;;;;;;23.23;14.77;;;10.80;91.50;;;;;;4972878;28;20207;-71
2022/04/24 06:37:55;;;;;;;18.07;13.80;;;10.90;91.30;;;;;;4979429;28;20173;-70
2022/04/24 06:40:25;;;;;;;19.23;13.00;;;11.00;91.50;;;;;;4994087;28;20195;-69
2022/04/24 06:42:53;;;;;;;19.90;15.73;;;11.00;91.00;;;;;;4978945;28;20193;-72
2022/04/24 06:45:30;;;;;;;21.87;14.50;;;11.00;89.80;;;;;;4995154;28;20195;-70
2022/04/24 06:47:58;;;;;;;21.10;12.73;;;11.10;90.80;;;;;;4994837;28;20197;-70
2022/04/24 06:50:27;;;;;;;15.20;11.77;;;11.20;89.60;;;;;;4992495;28;20208;-68
2022/04/24 06:53:04;;;;;;;15.97;10.73;;;11.30;90.30;;;;;;4961983;28;20220;-69
2022/04/24 06:55:32;;;;;;;16.43;11.03;;;11.40;90.20;;;;;;4972827;28;20192;-69
2022/04/24 06:57:58;;;;;;;16.20;10.53;;;11.60;90.00;;;;;;4980808;28;20207;-70
2022/04/24 07:00:26;;;;;;;15.53;11.20;;;11.70;89.60;;;;;;4993836;28;20195;-70
2022/04/24 07:02:52;;;;;;;14.47;10.03;;;11.60;89.10;;;;;;4992685;28;20279;-69
2022/04/24 07:05:21;;;;;;;14.27;10.23;;;11.70;89.30;;;;;;4978038;28;20263;-69
2022/04/24 07:07:46;;;;;;;14.50;9.93;;;11.70;89.60;;;;;;4994014;28;20180;-69
2022/04/24 07:10:12;;;;;;;15.50;10.77;;;11.70;89.80;;;;;;4962373;28;20180;-69
2022/04/24 07:12:49;;;;;;;12.33;9.33;;;11.80;90.10;;;;;;4978578;28;20211;-69
2022/04/24 07:15:15;;;;;;;14.30;10.20;;;11.80;90.10;;;;;;4994765;28;20188;-69
2022/04/24 07:17:42;;;;;;;13.80;10.33;;;12.00;89.10;;;;;;4994716;28;20181;-69
2022/04/24 07:20:12;;;;;;;15.13;9.90;;;12.00;87.90;;;;;;4994415;28;20169;-69
2022/04/24 07:22:45;;;;;;;13.20;9.20;;;12.00;87.20;;;;;;4977967;28;20275;-69
2022/04/24 07:25:12;;;;;;;13.07;9.87;;;12.10;87.00;;;;;;4994419;28;20234;-69
2022/04/24 07:27:39;;;;;;;14.43;9.27;;;12.10;86.00;;;;;;4994150;28;20181;-69
2022/04/24 07:30:05;;;;;;;13.90;10.20;;;11.90;85.30;;;;;;4977931;28;20276;-69
2022/04/24 07:32:38;;;;;;;14.43;11.10;;;11.90;86.80;;;;;;4974298;28;20225;-69
2022/04/24 07:35:04;;;;;;;13.23;9.73;;;12.00;85.80;;;;;;4958988;28;20181;-69
2022/04/24 07:37:32;;;;;;;14.37;9.70;;;12.10;86.20;;;;;;4974616;28;20280;-69
2022/04/24 07:39:58;;;;;;;9.70;6.47;;;12.20;83.80;;;;;;4971116;28;20247;-68
2022/04/24 07:42:24;;;;;;;6.37;5.07;;;12.20;83.90;;;;;;4963702;28;20192;-70
2022/04/24 07:44:51;;;;;;;6.47;3.30;;;12.40;80.00;;;;;;4997239;28;20184;-70
2022/04/24 07:47:17;;;;;;;5.27;3.77;;;12.50;76.60;;;;;;4983229;28;20197;-68
2022/04/24 07:49:42;;;;;;;5.37;2.70;;;12.70;77.10;;;;;;4961395;28;20189;-68
2022/04/24 07:52:08;;;;;;;5.70;1.87;;;12.80;77.20;;;;;;4975780;28;20193;-69
2022/04/24 07:54:34;;;;;;;1.57;1.30;;;12.80;73.60;;;;;;4977527;28;20212;-69
2022/04/24 07:56:59;;;;;;;2.20;1.20;;;12.90;74.40;;;;;;4962057;28;20208;-69
2022/04/24 07:59:25;;;;;;;1.83;1.43;;;12.90;72.10;;;;;;4978132;28;20200;-70
2022/04/24 08:01:51;;;;;;;2.30;1.33;;;13.00;70.60;;;;;;4960466;28;20192;-70
2022/04/24 08:04:17;;;;;;;2.27;1.47;;;13.00;70.00;;;;;;4971339;28;20192;-70
2022/04/24 08:06:43;;;;;;;1.37;1.20;;;13.20;67.30;;;;;;4970904;28;20374;-70
2022/04/24 08:09:09;;;;;;;1.80;1.00;;;13.30;67.40;;;;;;4967893;28;20287;-70
2022/04/24 08:11:34;;;;;;;0.77;0.70;;;13.40;67.20;;;;;;4975032;28;20192;-70
2022/04/24 08:14:00;;;;;;;1.67;0.70;;;13.70;64.50;;;;;;4963656;28;20244;-70
2022/04/24 08:16:27;;;;;;;2.07;0.90;;;13.80;61.80;;;;;;4973840;28;20195;-69
2022/04/24 08:18:53;;;;;;;0.80;0.80;;;13.80;62.00;;;;;;4975532;28;20197;-70
2022/04/24 08:21:19;;;;;;;1.27;0.80;;;13.90;59.60;;;;;;4964349;28;20193;-69
2022/04/24 08:23:44;;;;;;;1.13;0.60;;;14.00;62.30;;;;;;4978342;28;20312;-70
2022/04/24 08:26:10;;;;;;;0.97;0.53;;;14.10;60.60;;;;;;4965347;28;20244;-67
2022/04/24 08:28:36;;;;;;;1.00;0.60;;;14.10;59.50;;;;;;4971671;28;20189;-68
2022/04/24 08:31:02;;;;;;;1.10;0.63;;;14.20;58.10;;;;;;4977692;28;20208;-69
2022/04/24 08:33:28;;;;;;;1.37;0.63;;;14.20;58.70;;;;;;4996899;28;20220;-69
2022/04/24 08:35:54;;;;;;;0.57;0.50;;;14.30;59.00;;;;;;4966380;28;20193;-69
2022/04/24 08:38:19;;;;;;;1.93;0.60;;;14.40;58.80;;;;;;4971848;28;20263;-69
2022/04/24 08:40:46;;;;;;;1.63;0.80;;;14.40;58.80;;;;;;4975605;28;20201;-69
2022/04/24 08:43:15;;;;;;;2.30;0.90;;;14.70;56.50;;;;;;4984411;28;20204;-69
2022/04/24 08:45:42;;;;;;;1.67;0.80;;;14.70;57.80;;;;;;4976884;28;20278;-70
2022/04/24 08:48:08;;;;;;;2.00;0.70;;;14.70;57.20;;;;;;4976166;28;20193;-71
2022/04/24 08:50:34;;;;;;;2.27;0.83;;;14.80;62.60;;;;;;4997159;28;20255;-70
2022/04/24 08:53:00;;;;;;;1.03;0.50;;;14.90;63.80;;;;;;4964837;28;20223;-70
2022/04/24 08:55:31;;;;;;;1.40;0.90;;;15.00;62.40;;;;;;4995905;28;20188;-69
2022/04/24 08:57:57;;;;;;;1.20;1.10;;;14.90;60.90;;;;;;4996883;28;20271;-70
2022/04/24 09:00:23;;;;;;;1.67;1.40;;;15.00;64.00;;;;;;4980812;28;20285;-69
2022/04/24 09:02:49;;;;;;;1.60;1.10;;;15.20;64.70;;;;;;4995995;28;20227;-67
2022/04/24 09:05:15;;;;;;;2.10;1.43;;;15.10;66.70;;;;;;4980214;28;20220;-68
2022/04/24 09:07:43;;;;;;;3.70;2.10;;;15.20;67.50;;;;;;4997136;28;20188;-66
2022/04/24 09:10:12;;;;;;;2.57;1.97;;;15.20;67.70;;;;;;4979371;28;20232;-68
2022/04/24 09:12:39;;;;;;;5.57;2.23;;;15.40;65.80;;;;;;4962662;28;20225;-69
2022/04/24 09:15:06;;;;;;;2.63;2.20;;;15.30;67.70;;;;;;4985564;28;20193;-69
2022/04/24 09:17:33;;;;;;;3.40;2.07;;;15.30;68.10;;;;;;4993161;28;20189;-68
2022/04/24 09:20:00;;;;;;;3.30;2.00;;;15.40;67.70;;;;;;4992418;28;20189;-68
2022/04/24 09:22:26;;;;;;;2.47;1.90;;;15.60;68.60;;;;;;4983698;28;20228;-68
2022/04/24 09:24:59;;;;;;;3.17;1.90;;;15.60;67.50;;;;;;4986927;28;20287;-69
2022/04/24 09:27:37;;;;;;;2.00;1.90;;;15.70;68.00;;;;;;4987433;28;20185;-66
2022/04/24 09:30:04;;;;;;;2.77;1.80;;;15.70;66.30;;;;;;4983097;28;20200;-66
2022/04/24 09:32:37;;;;;;;2.93;1.53;;;15.60;65.90;;;;;;4976348;28;20189;-66
2022/04/24 09:35:03;;;;;;;2.20;1.70;;;15.70;65.70;;;;;;4987189;28;20191;-65
2022/04/24 09:37:39;;;;;;;2.23;1.40;;;15.60;65.20;;;;;;4980639;28;20185;-70
2022/04/24 09:40:05;;;;;;;2.80;1.87;;;15.30;63.90;;;;;;4980418;28;20192;-69
2022/04/24 09:42:31;;;;;;;1.37;1.17;;;15.30;65.10;;;;;;4979792;28;20256;-69
2022/04/24 09:44:57;;;;;;;1.77;1.10;;;15.30;61.00;;;;;;4996047;28;20181;-69
2022/04/24 09:47:24;;;;;;;1.30;1.20;;;15.30;62.80;;;;;;4977951;28;20188;-70
2022/04/24 09:49:51;;;;;;;2.63;1.40;;;15.20;60.40;;;;;;4976130;28;20213;-69
2022/04/24 09:52:25;;;;;;;1.50;1.10;;;15.10;60.50;;;;;;4976897;28;20185;-69
2022/04/24 09:54:55;;;;;;;1.37;1.10;;;15.00;61.60;;;;;;4963057;28;20186;-69
2022/04/24 09:57:23;;;;;;;1.60;1.27;;;15.10;58.10;;;;;;4990676;28;20196;-68
2022/04/24 09:59:53;;;;;;;2.67;1.20;;;15.10;60.30;;;;;;4978625;28;20266;-69
2022/04/24 10:02:20;;;;;;;1.50;1.23;;;15.20;58.70;;;;;;4995635;28;20195;-68
2022/04/24 10:04:47;;;;;;;1.53;1.43;;;15.30;59.00;;;;;;4995877;28;20177;-68
2022/04/24 10:07:15;;;;;;;1.97;1.30;;;15.40;56.30;;;;;;4995676;28;20196;-68
2022/04/24 10:09:43;;;;;;;1.23;0.90;;;15.50;59.50;;;;;;4979467;28;20201;-68
2022/04/24 10:12:11;;;;;;;1.47;1.03;;;15.50;58.70;;;;;;4994904;28;20192;-68
2022/04/24 10:14:43;;;;;;;1.23;1.00;;;15.60;54.00;;;;;;4981248;28;20240;-68
2022/04/24 10:17:17;;;;;;;1.53;0.70;;;15.80;50.40;;;;;;4976074;28;20177;-67
2022/04/24 10:19:58;;;;;;;1.33;0.70;;;15.90;49.00;;;;;;4976121;28;20188;-67
2022/04/24 10:22:35;;;;;;;3.13;0.80;;;15.90;50.20;;;;;;4989042;28;20189;-69
2022/04/24 10:25:03;;;;;;;0.90;0.80;;;16.00;51.20;;;;;;4995569;28;20243;-70
2022/04/24 10:27:44;;;;;;;2.27;0.57;;;16.20;53.00;;;;;;4995626;28;20206;-69
2022/04/24 10:30:19;;;;;;;0.70;0.70;;;16.10;49.20;;;;;;4995461;28;20223;-68
2022/04/24 10:32:48;;;;;;;0.87;0.60;;;16.10;47.00;;;;;;4995070;28;20224;-67
2022/04/24 10:35:19;;;;;;;0.87;0.77;;;16.10;50.30;;;;;;4995514;28;20181;-68
2022/04/24 10:37:49;;;;;;;1.97;0.70;;;16.10;49.10;;;;;;4995009;28;20195;-68
2022/04/24 10:40:19;;;;;;;0.83;0.83;;;16.20;46.80;;;;;;4978848;28;20180;-61
2022/04/24 10:42:46;;;;;;;0.40;0.40;;;16.10;49.00;;;;;;4977792;28;20288;-62
2022/04/24 10:45:14;;;;;;;0.60;0.50;;;16.10;46.90;;;;;;4977992;28;20204;-62
2022/04/24 10:47:49;;;;;;;0.40;0.40;;;16.10;44.50;;;;;;4979226;28;20184;-61
2022/04/24 10:50:20;;;;;;;0.60;0.60;;;16.10;44.70;;;;;;4996220;28;20251;-62
2022/04/24 10:52:47;;;;;;;1.03;0.50;;;16.00;43.70;;;;;;4979189;28;22114;-63
2022/04/24 10:55:15;;;;;;;0.87;0.50;;;16.20;46.20;;;;;;4978107;28;20283;-61
2022/04/24 10:57:48;;;;;;;0.83;0.60;;;16.40;46.80;;;;;;4995165;28;20188;-62
2022/04/24 11:00:19;;;;;;;0.40;0.37;;;16.70;42.20;;;;;;4993607;28;20227;-61
2022/04/24 11:02:45;;;;;;;2.03;0.60;;;16.80;43.20;;;;;;4975324;28;20453;-62
2022/04/24 11:05:11;;;;;;;1.50;0.40;;;16.80;48.50;;;;;;4975196;28;20197;-60
2022/04/24 11:07:37;;;;;;;2.57;0.43;;;17.00;44.30;;;;;;4983022;28;20208;-57
2022/04/24 11:10:06;;;;;;;0.50;0.30;;;17.10;43.80;;;;;;4994582;28;20188;-57
2022/04/24 11:12:33;;;;;;;0.87;0.43;;;17.00;44.50;;;;;;4994407;28;20222;-58
2022/04/24 11:15:04;;;;;;;0.30;0.30;;;16.80;42.90;;;;;;4994466;28;20259;-57
2022/04/24 11:17:29;;;;;;;1.07;0.40;;;16.90;47.00;;;;;;4994769;28;20184;-57
2022/04/24 11:20:04;;;;;;;2.07;0.63;;;16.90;45.80;;;;;;4978304;28;20283;-57
2022/04/24 11:22:31;;;;;;;0.97;0.40;;;17.10;43.70;;;;;;4993645;28;20238;-57
2022/04/24 11:24:59;;;;;;;1.37;0.50;;;17.20;44.10;;;;;;4990283;28;20224;-57
2022/04/24 11:27:26;;;;;;;2.83;0.50;;;17.30;42.60;;;;;;4992973;28;20186;-57
2022/04/24 11:29:52;;;;;;;0.70;0.57;;;17.40;43.80;;;;;;4977562;28;20197;-57
2022/04/24 11:32:18;;;;;;;0.70;0.23;;;17.60;40.90;;;;;;4978787;28;20177;-57
2022/04/24 11:34:45;;;;;;;0.60;0.47;;;17.70;42.10;;;;;;4994307;28;20209;-57
2022/04/24 11:37:11;;;;;;;0.33;0.30;;;17.90;44.60;;;;;;4994034;28;20319;-57
2022/04/24 11:39:40;;;;;;;0.40;0.30;;;18.00;42.50;;;;;;4994412;28;20192;-57
2022/04/24 11:42:06;;;;;;;0.40;0.33;;;18.20;41.70;;;;;;4993649;28;20184;-59
2022/04/24 11:50:14;;;;;;;1.37;0.40;;;18.60;38.70;;;;;;4988607;28;20192;-60
2022/04/24 11:52:48;;;;;;;1.33;0.60;;;18.70;37.10;;;;;;4992823;28;20196;-60
2022/04/24 11:55:15;;;;;;;0.80;0.30;;;18.60;38.20;;;;;;4960026;28;20207;-60
2022/04/24 11:57:41;;;;;;;0.63;0.40;;;18.40;38.10;;;;;;4977957;28;20184;-60
2022/04/24 12:00:09;;;;;;;1.27;0.40;;;18.20;38.40;;;;;;4993243;28;20278;-60
2022/04/24 12:02:35;;;;;;;1.40;0.50;;;18.10;39.20;;;;;;4977523;28;20192;-60
2022/04/24 12:05:01;;;;;;;1.30;0.40;;;17.90;38.40;;;;;;4977094;28;20208;-58
2022/04/24 12:07:32;;;;;;;8.63;1.30;;;17.70;39.70;;;;;;4993914;28;20172;-58
2022/04/24 12:10:07;;;;;;;0.70;0.40;;;17.60;40.00;;;;;;4989059;28;20191;-60
2022/04/24 12:12:43;;;;;;;0.53;0.40;;;17.60;40.00;;;;;;4986078;28;20190;-60
2022/04/24 12:15:14;;;;;;;0.97;0.40;;;17.80;39.50;;;;;;4988909;28;20184;-60
2022/04/24 12:17:48;;;;;;;1.80;0.53;;;18.30;39.10;;;;;;4991002;28;20195;-60
2022/04/24 12:20:13;;;;;;;1.33;0.40;;;19.00;39.00;;;;;;4994815;28;20179;-60
2022/04/24 12:22:39;;;;;;;1.30;0.50;;;19.60;37.40;;;;;;5000240;28;20200;-60
2022/04/24 12:25:15;;;;;;;0.40;0.33;;;19.90;36.10;;;;;;4976891;28;20224;-60
2022/04/24 12:27:52;;;;;;;0.40;0.30;;;20.20;35.30;;;;;;4993762;28;20176;-60
2022/04/24 12:30:18;;;;;;;0.93;0.30;;;20.90;34.60;;;;;;4984762;28;20234;-60
2022/04/24 12:32:43;;;;;;;1.00;0.53;;;21.30;34.40;;;;;;4992383;28;20256;-60
2022/04/24 12:35:25;;;;;;;0.53;0.43;;;21.40;33.30;;;;;;4989733;28;20190;-60
2022/04/24 12:37:51;;;;;;;1.03;0.50;;;22.20;30.70;;;;;;4990839;28;20188;-60
2022/04/24 12:40:16;;;;;;;2.00;0.60;;;22.80;31.30;;;;;;4965136;28;20251;-60
2022/04/24 12:42:54;;;;;;;0.40;0.30;;;23.50;30.00;;;;;;4972129;28;20189;-60
2022/04/24 12:45:21;;;;;;;0.50;0.50;;;24.30;29.00;;;;;;4993044;28;20180;-60
2022/04/24 12:47:51;;;;;;;1.23;0.30;;;24.60;28.60;;;;;;4976686;28;20199;-60